sensor_id;sensor_type;location;lat;lon;timestamp;P1;durP1;ratioP1;P2;durP2;ratioP2
7941;SDS011;4016;50.758;7.150;2022-07-29T00:00:49;2.67;;;2.47;;
7941;SDS011;4016;50.758;7.150;2022-07-29T00:05:49;2.35;;;2.15;;
7941;SDS011;4016;50.758;7.150;2022-07-29T00:10:51;3.42;;;2.63;;
7941;SDS011;4016;50.758;7.150;2022-07-29T00:15:52;3.70;;;2.78;;
7941;SDS011;4016;50.758;7.150;2022-07-29T00:20:52;2.40;;;2.17;;
7941;SDS011;4016;50.758;7.150;2022-07-29T00:25:53;2.70;;;2.50;;
7941;SDS011;4016;50.758;7.150;2022-07-29T00:30:53;2.72;;;2.53;;
7941;SDS011;4016;50.758;7.150;2022-07-29T00:35:53;3.20;;;2.77;;
7941;SDS011;4016;50.758;7.150;2022-07-29T00:40:54;2.50;;;2.30;;
7941;SDS011;4016;50.758;7.150;2022-07-29T00:45:54;2.50;;;2.35;;
7941;SDS011;4016;50.758;7.150;2022-07-29T00:50:55;2.78;;;2.53;;
7941;SDS011;4016;50.758;7.150;2022-07-29T00:55:58;2.53;;;2.33;;
7941;SDS011;4016;50.758;7.150;2022-07-29T01:00:58;3.17;;;2.30;;
7941;SDS011;4016;50.758;7.150;2022-07-29T01:05:59;2.53;;;2.42;;
7941;SDS011;4016;50.758;7.150;2022-07-29T01:11:00;2.40;;;2.20;;
7941;SDS011;4016;50.758;7.150;2022-07-29T01:16:25;2.47;;;2.28;;
7941;SDS011;4016;50.758;7.150;2022-07-29T01:32:15;2.77;;;2.57;;
7941;SDS011;4016;50.758;7.150;2022-07-29T01:37:28;3.23;;;2.60;;
7941;SDS011;4016;50.758;7.150;2022-07-29T01:42:42;2.70;;;2.50;;
7941;SDS011;4016;50.758;7.150;2022-07-29T01:48:06;2.47;;;2.27;;
7941;SDS011;4016;50.758;7.150;2022-07-29T01:53:29;2.53;;;2.33;;
7941;SDS011;4016;50.758;7.150;2022-07-29T01:58:34;3.30;;;2.70;;
7941;SDS011;4016;50.758;7.150;2022-07-29T02:03:39;3.53;;;2.93;;
7941;SDS011;4016;50.758;7.150;2022-07-29T02:08:43;2.97;;;2.43;;
7941;SDS011;4016;50.758;7.150;2022-07-29T02:13:45;2.63;;;2.40;;
7941;SDS011;4016;50.758;7.150;2022-07-29T02:18:47;3.00;;;2.80;;
7941;SDS011;4016;50.758;7.150;2022-07-29T02:23:49;2.50;;;2.30;;
7941;SDS011;4016;50.758;7.150;2022-07-29T02:28:54;2.73;;;2.53;;
7941;SDS011;4016;50.758;7.150;2022-07-29T02:33:56;3.00;;;2.80;;
7941;SDS011;4016;50.758;7.150;2022-07-29T02:38:57;3.17;;;2.87;;
7941;SDS011;4016;50.758;7.150;2022-07-29T02:44:02;3.00;;;2.80;;
7941;SDS011;4016;50.758;7.150;2022-07-29T02:49:12;3.07;;;2.83;;
7941;SDS011;4016;50.758;7.150;2022-07-29T02:54:20;3.03;;;2.80;;
7941;SDS011;4016;50.758;7.150;2022-07-29T02:59:26;3.00;;;2.70;;
7941;SDS011;4016;50.758;7.150;2022-07-29T03:04:27;3.07;;;2.53;;
7941;SDS011;4016;50.758;7.150;2022-07-29T03:09:30;2.67;;;2.47;;
7941;SDS011;4016;50.758;7.150;2022-07-29T03:14:31;3.13;;;2.90;;
7941;SDS011;4016;50.758;7.150;2022-07-29T03:19:32;3.10;;;2.90;;
7941;SDS011;4016;50.758;7.150;2022-07-29T03:24:36;2.90;;;2.70;;
7941;SDS011;4016;50.758;7.150;2022-07-29T03:29:36;3.20;;;2.90;;
7941;SDS011;4016;50.758;7.150;2022-07-29T03:34:37;3.03;;;2.83;;
7941;SDS011;4016;50.758;7.150;2022-07-29T03:39:38;3.97;;;2.97;;
7941;SDS011;4016;50.758;7.150;2022-07-29T03:44:41;3.03;;;2.83;;
7941;SDS011;4016;50.758;7.150;2022-07-29T03:49:44;3.30;;;3.00;;
7941;SDS011;4016;50.758;7.150;2022-07-29T03:54:47;3.10;;;2.90;;
7941;SDS011;4016;50.758;7.150;2022-07-29T03:59:48;3.40;;;2.63;;
7941;SDS011;4016;50.758;7.150;2022-07-29T04:04:51;3.27;;;2.97;;
7941;SDS011;4016;50.758;7.150;2022-07-29T04:09:52;3.40;;;2.90;;
7941;SDS011;4016;50.758;7.150;2022-07-29T04:14:52;2.40;;;2.30;;
7941;SDS011;4016;50.758;7.150;2022-07-29T04:19:52;3.60;;;3.30;;
7941;SDS011;4016;50.758;7.150;2022-07-29T04:24:53;4.60;;;3.93;;
7941;SDS011;4016;50.758;7.150;2022-07-29T04:29:53;4.40;;;3.63;;
7941;SDS011;4016;50.758;7.150;2022-07-29T04:34:53;4.47;;;3.27;;
7941;SDS011;4016;50.758;7.150;2022-07-29T04:39:54;4.50;;;3.20;;
7941;SDS011;4016;50.758;7.150;2022-07-29T04:44:54;3.40;;;3.10;;
7941;SDS011;4016;50.758;7.150;2022-07-29T04:49:54;3.00;;;2.80;;
7941;SDS011;4016;50.758;7.150;2022-07-29T04:54:56;3.20;;;2.73;;
7941;SDS011;4016;50.758;7.150;2022-07-29T04:59:56;2.83;;;2.63;;
7941;SDS011;4016;50.758;7.150;2022-07-29T05:04:56;3.23;;;2.97;;
7941;SDS011;4016;50.758;7.150;2022-07-29T05:09:57;4.03;;;3.63;;
7941;SDS011;4016;50.758;7.150;2022-07-29T05:14:57;3.33;;;3.03;;
7941;SDS011;4016;50.758;7.150;2022-07-29T05:19:57;3.97;;;3.33;;
7941;SDS011;4016;50.758;7.150;2022-07-29T05:24:58;3.07;;;2.77;;
7941;SDS011;4016;50.758;7.150;2022-07-29T05:29:58;3.67;;;3.03;;
7941;SDS011;4016;50.758;7.150;2022-07-29T05:34:58;3.00;;;2.70;;
7941;SDS011;4016;50.758;7.150;2022-07-29T05:39:59;3.87;;;3.33;;
7941;SDS011;4016;50.758;7.150;2022-07-29T05:45:00;2.63;;;2.42;;
7941;SDS011;4016;50.758;7.150;2022-07-29T05:50:00;3.70;;;2.90;;
7941;SDS011;4016;50.758;7.150;2022-07-29T05:55:01;5.15;;;2.65;;
7941;SDS011;4016;50.758;7.150;2022-07-29T06:00:04;2.95;;;2.55;;
7941;SDS011;4016;50.758;7.150;2022-07-29T06:05:05;3.78;;;2.72;;
7941;SDS011;4016;50.758;7.150;2022-07-29T06:10:06;2.75;;;2.55;;
7941;SDS011;4016;50.758;7.150;2022-07-29T06:15:06;3.47;;;3.17;;
7941;SDS011;4016;50.758;7.150;2022-07-29T06:20:07;2.95;;;2.65;;
7941;SDS011;4016;50.758;7.150;2022-07-29T06:25:08;3.45;;;2.58;;
7941;SDS011;4016;50.758;7.150;2022-07-29T06:30:09;3.17;;;2.80;;
7941;SDS011;4016;50.758;7.150;2022-07-29T06:35:09;7.20;;;3.28;;
7941;SDS011;4016;50.758;7.150;2022-07-29T06:40:10;3.85;;;2.88;;
7941;SDS011;4016;50.758;7.150;2022-07-29T06:45:29;2.70;;;2.50;;
7941;SDS011;4016;50.758;7.150;2022-07-29T06:50:30;4.97;;;2.65;;
7941;SDS011;4016;50.758;7.150;2022-07-29T06:55:30;3.47;;;2.83;;
7941;SDS011;4016;50.758;7.150;2022-07-29T07:00:31;2.80;;;2.40;;
7941;SDS011;4016;50.758;7.150;2022-07-29T07:05:31;3.53;;;2.90;;
7941;SDS011;4016;50.758;7.150;2022-07-29T07:10:32;5.43;;;2.67;;
7941;SDS011;4016;50.758;7.150;2022-07-29T07:15:33;3.35;;;2.38;;
7941;SDS011;4016;50.758;7.150;2022-07-29T07:20:33;2.72;;;2.33;;
7941;SDS011;4016;50.758;7.150;2022-07-29T07:25:34;2.88;;;2.47;;
7941;SDS011;4016;50.758;7.150;2022-07-29T07:30:35;5.30;;;2.88;;
7941;SDS011;4016;50.758;7.150;2022-07-29T07:35:35;3.60;;;2.72;;
7941;SDS011;4016;50.758;7.150;2022-07-29T07:40:35;2.90;;;2.20;;
7941;SDS011;4016;50.758;7.150;2022-07-29T07:45:36;3.20;;;2.72;;
7941;SDS011;4016;50.758;7.150;2022-07-29T07:50:37;4.22;;;2.80;;
7941;SDS011;4016;50.758;7.150;2022-07-29T07:55:43;2.85;;;2.50;;
7941;SDS011;4016;50.758;7.150;2022-07-29T08:00:43;2.92;;;2.63;;
7941;SDS011;4016;50.758;7.150;2022-07-29T08:05:44;3.72;;;2.65;;
7941;SDS011;4016;50.758;7.150;2022-07-29T08:10:44;2.88;;;2.40;;
7941;SDS011;4016;50.758;7.150;2022-07-29T08:15:55;2.78;;;2.50;;
7941;SDS011;4016;50.758;7.150;2022-07-29T08:21:11;2.80;;;2.60;;
7941;SDS011;4016;50.758;7.150;2022-07-29T08:26:13;3.63;;;2.53;;
7941;SDS011;4016;50.758;7.150;2022-07-29T08:31:13;2.45;;;2.25;;
7941;SDS011;4016;50.758;7.150;2022-07-29T08:36:14;3.90;;;2.78;;
7941;SDS011;4016;50.758;7.150;2022-07-29T08:41:14;3.33;;;2.87;;
7941;SDS011;4016;50.758;7.150;2022-07-29T08:46:15;2.65;;;2.45;;
7941;SDS011;4016;50.758;7.150;2022-07-29T08:51:17;2.63;;;2.42;;
7941;SDS011;4016;50.758;7.150;2022-07-29T08:56:19;2.85;;;2.65;;
7941;SDS011;4016;50.758;7.150;2022-07-29T09:01:24;3.47;;;2.85;;
7941;SDS011;4016;50.758;7.150;2022-07-29T09:06:28;3.03;;;2.80;;
7941;SDS011;4016;50.758;7.150;2022-07-29T09:11:33;3.22;;;2.78;;
7941;SDS011;4016;50.758;7.150;2022-07-29T09:16:44;2.83;;;2.63;;
7941;SDS011;4016;50.758;7.150;2022-07-29T09:21:49;3.03;;;2.70;;
7941;SDS011;4016;50.758;7.150;2022-07-29T09:26:58;3.45;;;2.70;;
7941;SDS011;4016;50.758;7.150;2022-07-29T09:31:59;3.17;;;2.95;;
7941;SDS011;4016;50.758;7.150;2022-07-29T09:36:59;4.20;;;2.70;;
7941;SDS011;4016;50.758;7.150;2022-07-29T09:42:04;5.30;;;3.03;;
7941;SDS011;4016;50.758;7.150;2022-07-29T09:47:05;3.30;;;2.92;;
7941;SDS011;4016;50.758;7.150;2022-07-29T09:52:07;4.28;;;3.25;;
7941;SDS011;4016;50.758;7.150;2022-07-29T09:57:09;2.67;;;2.42;;
7941;SDS011;4016;50.758;7.150;2022-07-29T10:02:22;4.57;;;2.80;;
7941;SDS011;4016;50.758;7.150;2022-07-29T10:07:49;3.30;;;3.00;;
7941;SDS011;4016;50.758;7.150;2022-07-29T10:12:51;3.78;;;2.72;;
7941;SDS011;4016;50.758;7.150;2022-07-29T10:17:54;2.97;;;2.78;;
7941;SDS011;4016;50.758;7.150;2022-07-29T10:22:55;3.22;;;2.90;;
7941;SDS011;4016;50.758;7.150;2022-07-29T10:27:56;3.28;;;3.00;;
7941;SDS011;4016;50.758;7.150;2022-07-29T10:38:07;2.92;;;2.58;;
7941;SDS011;4016;50.758;7.150;2022-07-29T10:43:44;3.20;;;2.90;;
7941;SDS011;4016;50.758;7.150;2022-07-29T10:54:19;5.93;;;3.20;;
7941;SDS011;4016;50.758;7.150;2022-07-29T10:59:37;3.65;;;3.28;;
7941;SDS011;4016;50.758;7.150;2022-07-29T11:09:45;3.45;;;3.15;;
7941;SDS011;4016;50.758;7.150;2022-07-29T11:15:14;4.65;;;3.50;;
7941;SDS011;4016;50.758;7.150;2022-07-29T11:20:31;3.30;;;3.00;;
7941;SDS011;4016;50.758;7.150;2022-07-29T11:25:45;5.03;;;3.53;;
7941;SDS011;4016;50.758;7.150;2022-07-29T11:31:07;3.75;;;3.30;;
7941;SDS011;4016;50.758;7.150;2022-07-29T11:36:11;4.40;;;3.78;;
7941;SDS011;4016;50.758;7.150;2022-07-29T11:41:23;4.07;;;3.67;;
7941;SDS011;4016;50.758;7.150;2022-07-29T11:51:51;5.55;;;3.45;;
7941;SDS011;4016;50.758;7.150;2022-07-29T11:56:55;3.58;;;3.28;;
7941;SDS011;4016;50.758;7.150;2022-07-29T12:01:58;3.88;;;3.47;;
7941;SDS011;4016;50.758;7.150;2022-07-29T12:06:59;5.60;;;3.40;;
7941;SDS011;4016;50.758;7.150;2022-07-29T12:12:00;4.15;;;3.28;;
7941;SDS011;4016;50.758;7.150;2022-07-29T12:17:00;3.20;;;2.90;;
7941;SDS011;4016;50.758;7.150;2022-07-29T12:22:01;5.60;;;3.00;;
7941;SDS011;4016;50.758;7.150;2022-07-29T12:27:02;3.92;;;3.08;;
7941;SDS011;4016;50.758;7.150;2022-07-29T12:32:03;5.43;;;3.00;;
7941;SDS011;4016;50.758;7.150;2022-07-29T12:37:06;3.30;;;2.90;;
7941;SDS011;4016;50.758;7.150;2022-07-29T12:42:13;4.97;;;2.65;;
7941;SDS011;4016;50.758;7.150;2022-07-29T12:47:15;2.92;;;2.72;;
7941;SDS011;4016;50.758;7.150;2022-07-29T12:52:33;3.10;;;2.88;;
7941;SDS011;4016;50.758;7.150;2022-07-29T12:57:49;3.97;;;3.22;;
7941;SDS011;4016;50.758;7.150;2022-07-29T13:02:58;3.20;;;2.90;;
7941;SDS011;4016;50.758;7.150;2022-07-29T13:08:13;3.67;;;2.90;;
7941;SDS011;4016;50.758;7.150;2022-07-29T13:13:15;3.42;;;3.08;;
7941;SDS011;4016;50.758;7.150;2022-07-29T13:18:28;3.10;;;2.83;;
7941;SDS011;4016;50.758;7.150;2022-07-29T13:23:29;3.42;;;3.08;;
7941;SDS011;4016;50.758;7.150;2022-07-29T13:28:30;3.70;;;3.13;;
7941;SDS011;4016;50.758;7.150;2022-07-29T13:33:30;5.03;;;2.83;;
7941;SDS011;4016;50.758;7.150;2022-07-29T13:38:30;6.83;;;3.30;;
7941;SDS011;4016;50.758;7.150;2022-07-29T13:43:31;3.30;;;3.00;;
7941;SDS011;4016;50.758;7.150;2022-07-29T13:48:31;3.15;;;2.90;;
7941;SDS011;4016;50.758;7.150;2022-07-29T13:53:32;3.50;;;3.20;;
7941;SDS011;4016;50.758;7.150;2022-07-29T13:58:33;3.35;;;3.10;;
7941;SDS011;4016;50.758;7.150;2022-07-29T14:03:33;4.05;;;3.22;;
7941;SDS011;4016;50.758;7.150;2022-07-29T14:08:34;3.50;;;3.20;;
7941;SDS011;4016;50.758;7.150;2022-07-29T14:13:34;3.20;;;2.92;;
7941;SDS011;4016;50.758;7.150;2022-07-29T14:18:35;3.10;;;2.80;;
7941;SDS011;4016;50.758;7.150;2022-07-29T14:23:36;3.72;;;3.00;;
7941;SDS011;4016;50.758;7.150;2022-07-29T14:28:36;3.40;;;3.13;;
7941;SDS011;4016;50.758;7.150;2022-07-29T14:33:37;4.43;;;3.08;;
7941;SDS011;4016;50.758;7.150;2022-07-29T14:38:37;4.75;;;3.20;;
7941;SDS011;4016;50.758;7.150;2022-07-29T14:43:38;3.95;;;3.05;;
7941;SDS011;4016;50.758;7.150;2022-07-29T14:48:39;3.38;;;3.08;;
7941;SDS011;4016;50.758;7.150;2022-07-29T14:53:39;3.38;;;3.05;;
7941;SDS011;4016;50.758;7.150;2022-07-29T14:58:39;3.35;;;3.15;;
7941;SDS011;4016;50.758;7.150;2022-07-29T15:03:40;4.88;;;3.30;;
7941;SDS011;4016;50.758;7.150;2022-07-29T15:08:40;4.18;;;3.20;;
7941;SDS011;4016;50.758;7.150;2022-07-29T15:13:40;4.67;;;3.57;;
7941;SDS011;4016;50.758;7.150;2022-07-29T15:18:41;5.82;;;3.47;;
7941;SDS011;4016;50.758;7.150;2022-07-29T15:23:41;4.17;;;3.17;;
7941;SDS011;4016;50.758;7.150;2022-07-29T15:28:41;3.57;;;3.27;;
7941;SDS011;4016;50.758;7.150;2022-07-29T15:33:42;4.00;;;3.40;;
7941;SDS011;4016;50.758;7.150;2022-07-29T15:38:42;3.63;;;3.33;;
7941;SDS011;4016;50.758;7.150;2022-07-29T15:43:44;5.50;;;3.47;;
7941;SDS011;4016;50.758;7.150;2022-07-29T15:48:46;4.93;;;3.40;;
7941;SDS011;4016;50.758;7.150;2022-07-29T15:53:47;4.03;;;3.28;;
7941;SDS011;4016;50.758;7.150;2022-07-29T15:58:47;3.95;;;3.42;;
7941;SDS011;4016;50.758;7.150;2022-07-29T16:03:48;4.15;;;3.47;;
7941;SDS011;4016;50.758;7.150;2022-07-29T16:08:48;3.80;;;3.40;;
7941;SDS011;4016;50.758;7.150;2022-07-29T16:13:48;4.28;;;3.05;;
7941;SDS011;4016;50.758;7.150;2022-07-29T16:18:49;5.03;;;3.05;;
7941;SDS011;4016;50.758;7.150;2022-07-29T16:23:49;3.72;;;2.92;;
7941;SDS011;4016;50.758;7.150;2022-07-29T16:28:50;4.18;;;3.08;;
7941;SDS011;4016;50.758;7.150;2022-07-29T16:33:53;3.63;;;2.97;;
7941;SDS011;4016;50.758;7.150;2022-07-29T16:38:54;2.78;;;2.58;;
7941;SDS011;4016;50.758;7.150;2022-07-29T16:43:54;4.10;;;2.90;;
7941;SDS011;4016;50.758;7.150;2022-07-29T16:48:55;7.07;;;3.00;;
7941;SDS011;4016;50.758;7.150;2022-07-29T16:53:55;3.40;;;3.10;;
7941;SDS011;4016;50.758;7.150;2022-07-29T16:58:56;3.05;;;2.83;;
7941;SDS011;4016;50.758;7.150;2022-07-29T17:03:57;3.08;;;2.78;;
7941;SDS011;4016;50.758;7.150;2022-07-29T17:09:07;3.28;;;2.97;;
7941;SDS011;4016;50.758;7.150;2022-07-29T17:14:10;3.20;;;2.90;;
7941;SDS011;4016;50.758;7.150;2022-07-29T17:19:10;3.50;;;2.85;;
7941;SDS011;4016;50.758;7.150;2022-07-29T17:24:11;3.20;;;2.90;;
7941;SDS011;4016;50.758;7.150;2022-07-29T17:29:11;3.17;;;2.88;;
7941;SDS011;4016;50.758;7.150;2022-07-29T17:34:14;3.38;;;3.08;;
7941;SDS011;4016;50.758;7.150;2022-07-29T17:39:15;4.85;;;2.95;;
7941;SDS011;4016;50.758;7.150;2022-07-29T17:44:15;3.42;;;2.88;;
7941;SDS011;4016;50.758;7.150;2022-07-29T17:49:16;5.10;;;3.33;;
7941;SDS011;4016;50.758;7.150;2022-07-29T17:54:16;3.80;;;3.00;;
7941;SDS011;4016;50.758;7.150;2022-07-29T17:59:17;3.63;;;3.08;;
7941;SDS011;4016;50.758;7.150;2022-07-29T18:04:17;3.90;;;3.50;;
7941;SDS011;4016;50.758;7.150;2022-07-29T18:09:19;3.60;;;3.30;;
7941;SDS011;4016;50.758;7.150;2022-07-29T18:14:20;5.78;;;3.03;;
7941;SDS011;4016;50.758;7.150;2022-07-29T18:19:20;5.03;;;3.00;;
7941;SDS011;4016;50.758;7.150;2022-07-29T18:24:24;3.20;;;2.90;;
7941;SDS011;4016;50.758;7.150;2022-07-29T18:29:26;5.55;;;2.85;;
7941;SDS011;4016;50.758;7.150;2022-07-29T18:34:27;5.18;;;2.95;;
7941;SDS011;4016;50.758;7.150;2022-07-29T18:39:28;3.63;;;3.33;;
7941;SDS011;4016;50.758;7.150;2022-07-29T18:44:28;4.25;;;3.00;;
7941;SDS011;4016;50.758;7.150;2022-07-29T18:49:29;3.53;;;3.05;;
7941;SDS011;4016;50.758;7.150;2022-07-29T18:54:29;6.07;;;3.00;;
7941;SDS011;4016;50.758;7.150;2022-07-29T18:59:30;3.20;;;2.80;;
7941;SDS011;4016;50.758;7.150;2022-07-29T19:04:32;3.40;;;3.10;;
7941;SDS011;4016;50.758;7.150;2022-07-29T19:09:33;5.47;;;3.00;;
7941;SDS011;4016;50.758;7.150;2022-07-29T19:14:33;3.08;;;2.80;;
7941;SDS011;4016;50.758;7.150;2022-07-29T19:19:34;3.20;;;2.90;;
7941;SDS011;4016;50.758;7.150;2022-07-29T19:24:34;5.63;;;2.97;;
7941;SDS011;4016;50.758;7.150;2022-07-29T19:29:35;2.92;;;2.72;;
7941;SDS011;4016;50.758;7.150;2022-07-29T19:34:35;3.28;;;2.78;;
7941;SDS011;4016;50.758;7.150;2022-07-29T19:39:36;4.47;;;3.05;;
7941;SDS011;4016;50.758;7.150;2022-07-29T19:44:36;3.22;;;2.90;;
7941;SDS011;4016;50.758;7.150;2022-07-29T19:49:37;2.72;;;2.53;;
7941;SDS011;4016;50.758;7.150;2022-07-29T19:54:38;3.55;;;3.10;;
7941;SDS011;4016;50.758;7.150;2022-07-29T19:59:38;3.75;;;2.83;;
7941;SDS011;4016;50.758;7.150;2022-07-29T20:04:39;3.20;;;2.90;;
7941;SDS011;4016;50.758;7.150;2022-07-29T20:09:39;3.15;;;2.50;;
7941;SDS011;4016;50.758;7.150;2022-07-29T20:14:40;3.25;;;2.80;;
7941;SDS011;4016;50.758;7.150;2022-07-29T20:19:40;2.80;;;2.60;;
7941;SDS011;4016;50.758;7.150;2022-07-29T20:24:41;3.38;;;3.08;;
7941;SDS011;4016;50.758;7.150;2022-07-29T20:29:42;3.50;;;3.10;;
7941;SDS011;4016;50.758;7.150;2022-07-29T20:34:42;3.60;;;2.88;;
7941;SDS011;4016;50.758;7.150;2022-07-29T20:39:43;3.85;;;3.20;;
7941;SDS011;4016;50.758;7.150;2022-07-29T20:44:46;4.25;;;2.92;;
7941;SDS011;4016;50.758;7.150;2022-07-29T20:49:49;3.10;;;2.80;;
7941;SDS011;4016;50.758;7.150;2022-07-29T20:54:49;3.40;;;3.10;;
7941;SDS011;4016;50.758;7.150;2022-07-29T20:59:50;4.90;;;3.70;;
7941;SDS011;4016;50.758;7.150;2022-07-29T21:04:50;6.53;;;4.97;;
7941;SDS011;4016;50.758;7.150;2022-07-29T21:09:51;7.72;;;5.25;;
7941;SDS011;4016;50.758;7.150;2022-07-29T21:14:51;5.93;;;4.50;;
7941;SDS011;4016;50.758;7.150;2022-07-29T21:19:51;4.65;;;3.85;;
7941;SDS011;4016;50.758;7.150;2022-07-29T21:24:54;4.75;;;3.58;;
7941;SDS011;4016;50.758;7.150;2022-07-29T21:29:54;6.30;;;3.88;;
7941;SDS011;4016;50.758;7.150;2022-07-29T21:34:54;4.88;;;3.95;;
7941;SDS011;4016;50.758;7.150;2022-07-29T21:39:55;3.58;;;3.28;;
7941;SDS011;4016;50.758;7.150;2022-07-29T21:44:55;3.78;;;3.42;;
7941;SDS011;4016;50.758;7.150;2022-07-29T21:49:56;3.70;;;3.40;;
7941;SDS011;4016;50.758;7.150;2022-07-29T21:54:56;3.85;;;3.53;;
7941;SDS011;4016;50.758;7.150;2022-07-29T21:59:57;3.92;;;3.40;;
7941;SDS011;4016;50.758;7.150;2022-07-29T22:04:57;3.72;;;3.20;;
7941;SDS011;4016;50.758;7.150;2022-07-29T22:09:58;3.83;;;3.42;;
7941;SDS011;4016;50.758;7.150;2022-07-29T22:14:59;3.95;;;3.55;;
7941;SDS011;4016;50.758;7.150;2022-07-29T22:19:59;3.30;;;3.00;;
7941;SDS011;4016;50.758;7.150;2022-07-29T22:25:00;4.13;;;3.28;;
7941;SDS011;4016;50.758;7.150;2022-07-29T22:30:00;4.07;;;3.67;;
7941;SDS011;4016;50.758;7.150;2022-07-29T22:35:01;3.78;;;3.38;;
7941;SDS011;4016;50.758;7.150;2022-07-29T22:40:01;4.38;;;3.65;;
7941;SDS011;4016;50.758;7.150;2022-07-29T22:45:03;4.10;;;3.55;;
7941;SDS011;4016;50.758;7.150;2022-07-29T22:50:04;3.65;;;3.33;;
7941;SDS011;4016;50.758;7.150;2022-07-29T22:55:05;4.47;;;3.70;;
7941;SDS011;4016;50.758;7.150;2022-07-29T23:00:06;5.60;;;3.40;;
7941;SDS011;4016;50.758;7.150;2022-07-29T23:05:07;4.47;;;3.67;;
7941;SDS011;4016;50.758;7.150;2022-07-29T23:10:08;3.80;;;3.40;;
7941;SDS011;4016;50.758;7.150;2022-07-29T23:15:09;3.83;;;3.40;;
7941;SDS011;4016;50.758;7.150;2022-07-29T23:20:09;3.88;;;3.47;;
7941;SDS011;4016;50.758;7.150;2022-07-29T23:25:10;4.88;;;3.65;;
7941;SDS011;4016;50.758;7.150;2022-07-29T23:30:10;3.95;;;3.53;;
7941;SDS011;4016;50.758;7.150;2022-07-29T23:35:11;4.55;;;3.80;;
7941;SDS011;4016;50.758;7.150;2022-07-29T23:40:11;4.53;;;3.80;;
7941;SDS011;4016;50.758;7.150;2022-07-29T23:45:12;4.70;;;4.22;;
7941;SDS011;4016;50.758;7.150;2022-07-29T23:50:13;3.63;;;3.33;;
7941;SDS011;4016;50.758;7.150;2022-07-29T23:55:15;5.43;;;4.10;;
